sensor_id;sensor_type;location;lat;lon;timestamp;P1;durP1;ratioP1;P2;durP2;ratioP2
4614;SDS011;2320;51.362;6.946;2024-03-17T00:01:19;7.87;;;4.27;;
4614;SDS011;2320;51.362;6.946;2024-03-17T00:03:45;9.40;;;4.27;;
4614;SDS011;2320;51.362;6.946;2024-03-17T00:06:11;5.40;;;4.00;;
4614;SDS011;2320;51.362;6.946;2024-03-17T00:08:37;5.30;;;3.10;;
4614;SDS011;2320;51.362;6.946;2024-03-17T00:11:02;8.27;;;4.20;;
4614;SDS011;2320;51.362;6.946;2024-03-17T00:13:28;10.83;;;4.30;;
4614;SDS011;2320;51.362;6.946;2024-03-17T00:15:53;4.50;;;4.07;;
4614;SDS011;2320;51.362;6.946;2024-03-17T00:18:19;7.50;;;4.27;;
4614;SDS011;2320;51.362;6.946;2024-03-17T00:20:45;4.90;;;4.30;;
4614;SDS011;2320;51.362;6.946;2024-03-17T00:23:10;6.63;;;4.70;;
4614;SDS011;2320;51.362;6.946;2024-03-17T00:25:37;9.00;;;4.23;;
4614;SDS011;2320;51.362;6.946;2024-03-17T00:28:03;4.97;;;4.47;;
4614;SDS011;2320;51.362;6.946;2024-03-17T00:30:29;5.73;;;4.80;;
4614;SDS011;2320;51.362;6.946;2024-03-17T00:32:56;8.60;;;4.17;;
4614;SDS011;2320;51.362;6.946;2024-03-17T00:35:23;6.93;;;4.90;;
4614;SDS011;2320;51.362;6.946;2024-03-17T00:37:49;6.00;;;5.50;;
4614;SDS011;2320;51.362;6.946;2024-03-17T00:40:15;11.87;;;5.33;;
4614;SDS011;2320;51.362;6.946;2024-03-17T00:42:42;8.07;;;4.87;;
4614;SDS011;2320;51.362;6.946;2024-03-17T00:45:09;8.43;;;5.73;;
4614;SDS011;2320;51.362;6.946;2024-03-17T00:47:36;8.93;;;5.00;;
4614;SDS011;2320;51.362;6.946;2024-03-17T00:50:02;6.93;;;4.67;;
4614;SDS011;2320;51.362;6.946;2024-03-17T00:52:29;8.60;;;4.83;;
4614;SDS011;2320;51.362;6.946;2024-03-17T00:54:55;11.40;;;5.10;;
4614;SDS011;2320;51.362;6.946;2024-03-17T00:57:20;18.77;;;6.20;;
4614;SDS011;2320;51.362;6.946;2024-03-17T00:59:46;5.57;;;4.50;;
4614;SDS011;2320;51.362;6.946;2024-03-17T01:02:12;10.37;;;5.73;;
4614;SDS011;2320;51.362;6.946;2024-03-17T01:04:39;6.80;;;5.77;;
4614;SDS011;2320;51.362;6.946;2024-03-17T01:07:05;6.07;;;5.50;;
4614;SDS011;2320;51.362;6.946;2024-03-17T01:09:31;6.47;;;5.87;;
4614;SDS011;2320;51.362;6.946;2024-03-17T01:11:56;9.30;;;4.70;;
4614;SDS011;2320;51.362;6.946;2024-03-17T01:14:22;8.03;;;4.83;;
4614;SDS011;2320;51.362;6.946;2024-03-17T01:16:47;7.90;;;5.73;;
4614;SDS011;2320;51.362;6.946;2024-03-17T01:19:15;7.43;;;4.87;;
4614;SDS011;2320;51.362;6.946;2024-03-17T01:21:40;8.60;;;5.30;;
4614;SDS011;2320;51.362;6.946;2024-03-17T01:24:06;7.70;;;6.00;;
4614;SDS011;2320;51.362;6.946;2024-03-17T01:26:31;8.33;;;4.90;;
4614;SDS011;2320;51.362;6.946;2024-03-17T01:28:57;8.93;;;4.83;;
4614;SDS011;2320;51.362;6.946;2024-03-17T01:31:22;12.13;;;5.60;;
4614;SDS011;2320;51.362;6.946;2024-03-17T01:33:48;9.13;;;6.47;;
4614;SDS011;2320;51.362;6.946;2024-03-17T01:36:13;6.80;;;4.83;;
4614;SDS011;2320;51.362;6.946;2024-03-17T01:38:39;12.57;;;6.13;;
4614;SDS011;2320;51.362;6.946;2024-03-17T01:41:04;6.80;;;6.10;;
4614;SDS011;2320;51.362;6.946;2024-03-17T01:43:30;10.60;;;6.00;;
4614;SDS011;2320;51.362;6.946;2024-03-17T01:45:56;7.80;;;5.10;;
4614;SDS011;2320;51.362;6.946;2024-03-17T01:48:23;10.00;;;6.80;;
4614;SDS011;2320;51.362;6.946;2024-03-17T01:50:49;8.43;;;6.40;;
4614;SDS011;2320;51.362;6.946;2024-03-17T01:53:20;9.40;;;6.13;;
4614;SDS011;2320;51.362;6.946;2024-03-17T01:55:46;10.20;;;5.33;;
4614;SDS011;2320;51.362;6.946;2024-03-17T01:58:12;7.63;;;5.87;;
4614;SDS011;2320;51.362;6.946;2024-03-17T02:00:38;10.40;;;7.03;;
4614;SDS011;2320;51.362;6.946;2024-03-17T02:03:08;14.07;;;6.23;;
4614;SDS011;2320;51.362;6.946;2024-03-17T02:05:34;7.43;;;6.63;;
4614;SDS011;2320;51.362;6.946;2024-03-17T02:08:02;7.97;;;6.40;;
4614;SDS011;2320;51.362;6.946;2024-03-17T02:10:31;7.70;;;5.20;;
4614;SDS011;2320;51.362;6.946;2024-03-17T02:12:58;11.83;;;6.00;;
4614;SDS011;2320;51.362;6.946;2024-03-17T02:15:24;9.97;;;6.37;;
4614;SDS011;2320;51.362;6.946;2024-03-17T02:17:50;16.03;;;5.30;;
4614;SDS011;2320;51.362;6.946;2024-03-17T02:20:15;7.17;;;5.80;;
4614;SDS011;2320;51.362;6.946;2024-03-17T02:22:41;12.33;;;6.60;;
4614;SDS011;2320;51.362;6.946;2024-03-17T02:25:06;9.60;;;5.57;;
4614;SDS011;2320;51.362;6.946;2024-03-17T02:27:35;10.47;;;7.50;;
4614;SDS011;2320;51.362;6.946;2024-03-17T02:30:02;10.20;;;7.70;;
4614;SDS011;2320;51.362;6.946;2024-03-17T02:32:29;8.23;;;7.43;;
4614;SDS011;2320;51.362;6.946;2024-03-17T02:34:55;15.23;;;8.37;;
4614;SDS011;2320;51.362;6.946;2024-03-17T02:37:21;9.90;;;8.33;;
4614;SDS011;2320;51.362;6.946;2024-03-17T02:39:47;11.60;;;8.30;;
4614;SDS011;2320;51.362;6.946;2024-03-17T02:42:12;9.00;;;8.10;;
4614;SDS011;2320;51.362;6.946;2024-03-17T02:44:38;8.33;;;6.97;;
4614;SDS011;2320;51.362;6.946;2024-03-17T02:47:06;21.47;;;6.63;;
4614;SDS011;2320;51.362;6.946;2024-03-17T02:49:35;12.13;;;7.23;;
4614;SDS011;2320;51.362;6.946;2024-03-17T02:52:09;10.17;;;7.03;;
4614;SDS011;2320;51.362;6.946;2024-03-17T02:54:35;14.50;;;7.93;;
4614;SDS011;2320;51.362;6.946;2024-03-17T02:57:02;9.23;;;7.53;;
4614;SDS011;2320;51.362;6.946;2024-03-17T02:59:28;11.53;;;7.80;;
4614;SDS011;2320;51.362;6.946;2024-03-17T03:01:54;8.60;;;7.70;;
4614;SDS011;2320;51.362;6.946;2024-03-17T03:04:20;13.50;;;8.70;;
4614;SDS011;2320;51.362;6.946;2024-03-17T03:06:45;19.30;;;8.53;;
4614;SDS011;2320;51.362;6.946;2024-03-17T03:09:11;10.37;;;7.00;;
4614;SDS011;2320;51.362;6.946;2024-03-17T03:11:45;10.20;;;7.40;;
4614;SDS011;2320;51.362;6.946;2024-03-17T03:14:11;15.30;;;8.57;;
4614;SDS011;2320;51.362;6.946;2024-03-17T03:16:37;18.40;;;8.87;;
4614;SDS011;2320;51.362;6.946;2024-03-17T03:19:03;9.93;;;7.87;;
4614;SDS011;2320;51.362;6.946;2024-03-17T03:21:30;16.73;;;8.83;;
4614;SDS011;2320;51.362;6.946;2024-03-17T03:23:56;13.10;;;8.83;;
4614;SDS011;2320;51.362;6.946;2024-03-17T03:26:21;12.93;;;8.60;;
4614;SDS011;2320;51.362;6.946;2024-03-17T03:28:48;16.63;;;9.90;;
4614;SDS011;2320;51.362;6.946;2024-03-17T03:31:14;14.67;;;9.30;;
4614;SDS011;2320;51.362;6.946;2024-03-17T03:33:43;11.00;;;8.40;;
4614;SDS011;2320;51.362;6.946;2024-03-17T03:36:12;15.93;;;10.53;;
4614;SDS011;2320;51.362;6.946;2024-03-17T03:38:39;10.53;;;8.27;;
4614;SDS011;2320;51.362;6.946;2024-03-17T03:41:07;13.70;;;8.73;;
4614;SDS011;2320;51.362;6.946;2024-03-17T03:43:39;15.23;;;9.63;;
4614;SDS011;2320;51.362;6.946;2024-03-17T03:46:06;12.10;;;9.10;;
4614;SDS011;2320;51.362;6.946;2024-03-17T03:48:32;15.03;;;7.60;;
4614;SDS011;2320;51.362;6.946;2024-03-17T03:51:04;13.80;;;8.23;;
4614;SDS011;2320;51.362;6.946;2024-03-17T03:53:31;12.07;;;9.37;;
4614;SDS011;2320;51.362;6.946;2024-03-17T03:55:57;11.47;;;8.70;;
4614;SDS011;2320;51.362;6.946;2024-03-17T03:58:24;13.80;;;8.87;;
4614;SDS011;2320;51.362;6.946;2024-03-17T04:00:49;14.57;;;9.80;;
4614;SDS011;2320;51.362;6.946;2024-03-17T04:03:15;15.60;;;10.17;;
4614;SDS011;2320;51.362;6.946;2024-03-17T04:05:40;15.53;;;10.33;;
4614;SDS011;2320;51.362;6.946;2024-03-17T04:08:06;14.00;;;9.57;;
4614;SDS011;2320;51.362;6.946;2024-03-17T04:10:33;19.77;;;10.87;;
4614;SDS011;2320;51.362;6.946;2024-03-17T04:12:59;13.20;;;10.77;;
4614;SDS011;2320;51.362;6.946;2024-03-17T04:15:24;12.70;;;10.30;;
4614;SDS011;2320;51.362;6.946;2024-03-17T04:17:50;17.63;;;11.40;;
4614;SDS011;2320;51.362;6.946;2024-03-17T04:20:15;17.17;;;10.13;;
4614;SDS011;2320;51.362;6.946;2024-03-17T04:22:41;14.07;;;9.80;;
4614;SDS011;2320;51.362;6.946;2024-03-17T04:25:10;13.23;;;10.07;;
4614;SDS011;2320;51.362;6.946;2024-03-17T04:27:36;15.37;;;10.23;;
4614;SDS011;2320;51.362;6.946;2024-03-17T04:30:03;11.27;;;9.20;;
4614;SDS011;2320;51.362;6.946;2024-03-17T04:32:31;22.10;;;10.80;;
4614;SDS011;2320;51.362;6.946;2024-03-17T04:34:57;14.07;;;8.83;;
4614;SDS011;2320;51.362;6.946;2024-03-17T04:37:23;12.40;;;8.40;;
4614;SDS011;2320;51.362;6.946;2024-03-17T04:39:49;12.20;;;7.57;;
4614;SDS011;2320;51.362;6.946;2024-03-17T04:42:16;9.73;;;7.63;;
4614;SDS011;2320;51.362;6.946;2024-03-17T04:44:43;10.70;;;7.17;;
4614;SDS011;2320;51.362;6.946;2024-03-17T04:47:09;13.70;;;8.90;;
4614;SDS011;2320;51.362;6.946;2024-03-17T04:49:38;13.30;;;8.80;;
4614;SDS011;2320;51.362;6.946;2024-03-17T04:52:05;9.97;;;7.73;;
4614;SDS011;2320;51.362;6.946;2024-03-17T04:54:32;14.60;;;8.70;;
4614;SDS011;2320;51.362;6.946;2024-03-17T04:56:58;9.13;;;6.30;;
4614;SDS011;2320;51.362;6.946;2024-03-17T04:59:24;16.30;;;8.27;;
4614;SDS011;2320;51.362;6.946;2024-03-17T05:01:50;9.23;;;7.90;;
4614;SDS011;2320;51.362;6.946;2024-03-17T05:04:16;14.83;;;9.03;;
4614;SDS011;2320;51.362;6.946;2024-03-17T05:06:42;12.73;;;8.63;;
4614;SDS011;2320;51.362;6.946;2024-03-17T05:09:11;8.13;;;6.70;;
4614;SDS011;2320;51.362;6.946;2024-03-17T05:11:40;15.23;;;8.40;;
4614;SDS011;2320;51.362;6.946;2024-03-17T05:14:05;10.40;;;7.13;;
4614;SDS011;2320;51.362;6.946;2024-03-17T05:16:31;13.60;;;6.50;;
4614;SDS011;2320;51.362;6.946;2024-03-17T05:18:57;9.17;;;7.57;;
4614;SDS011;2320;51.362;6.946;2024-03-17T05:21:22;11.87;;;7.90;;
4614;SDS011;2320;51.362;6.946;2024-03-17T05:23:48;13.80;;;6.97;;
4614;SDS011;2320;51.362;6.946;2024-03-17T05:26:14;11.77;;;7.73;;
4614;SDS011;2320;51.362;6.946;2024-03-17T05:28:40;15.40;;;8.80;;
4614;SDS011;2320;51.362;6.946;2024-03-17T05:31:05;13.47;;;7.43;;
4614;SDS011;2320;51.362;6.946;2024-03-17T05:33:31;16.17;;;8.07;;
4614;SDS011;2320;51.362;6.946;2024-03-17T05:35:57;8.60;;;7.00;;
4614;SDS011;2320;51.362;6.946;2024-03-17T05:38:27;13.27;;;7.47;;
4614;SDS011;2320;51.362;6.946;2024-03-17T05:43:26;19.73;;;9.73;;
4614;SDS011;2320;51.362;6.946;2024-03-17T05:45:58;17.20;;;7.67;;
4614;SDS011;2320;51.362;6.946;2024-03-17T05:48:24;12.77;;;8.50;;
4614;SDS011;2320;51.362;6.946;2024-03-17T05:50:50;12.53;;;8.73;;
4614;SDS011;2320;51.362;6.946;2024-03-17T05:53:21;10.93;;;8.17;;
4614;SDS011;2320;51.362;6.946;2024-03-17T05:55:50;12.17;;;8.23;;
4614;SDS011;2320;51.362;6.946;2024-03-17T05:58:16;11.80;;;8.03;;
4614;SDS011;2320;51.362;6.946;2024-03-17T06:00:42;9.17;;;6.80;;
4614;SDS011;2320;51.362;6.946;2024-03-17T06:03:08;6.70;;;5.53;;
4614;SDS011;2320;51.362;6.946;2024-03-17T06:05:38;6.97;;;6.30;;
4614;SDS011;2320;51.362;6.946;2024-03-17T06:08:05;7.30;;;5.93;;
4614;SDS011;2320;51.362;6.946;2024-03-17T06:10:34;7.97;;;5.63;;
4614;SDS011;2320;51.362;6.946;2024-03-17T06:13:01;9.23;;;6.60;;
4614;SDS011;2320;51.362;6.946;2024-03-17T06:15:27;8.57;;;5.90;;
4614;SDS011;2320;51.362;6.946;2024-03-17T06:17:53;9.63;;;6.27;;
4614;SDS011;2320;51.362;6.946;2024-03-17T06:20:25;7.20;;;5.60;;
4614;SDS011;2320;51.362;6.946;2024-03-17T06:22:54;7.63;;;5.47;;
4614;SDS011;2320;51.362;6.946;2024-03-17T06:25:20;6.20;;;5.57;;
4614;SDS011;2320;51.362;6.946;2024-03-17T06:27:48;6.67;;;5.37;;
4614;SDS011;2320;51.362;6.946;2024-03-17T06:30:15;11.13;;;6.23;;
4614;SDS011;2320;51.362;6.946;2024-03-17T06:32:41;6.60;;;5.10;;
4614;SDS011;2320;51.362;6.946;2024-03-17T06:35:07;10.73;;;4.80;;
4614;SDS011;2320;51.362;6.946;2024-03-17T06:37:35;5.43;;;4.93;;
4614;SDS011;2320;51.362;6.946;2024-03-17T06:40:01;8.33;;;5.03;;
4614;SDS011;2320;51.362;6.946;2024-03-17T06:42:28;5.70;;;4.50;;
4614;SDS011;2320;51.362;6.946;2024-03-17T06:44:54;5.80;;;5.03;;
4614;SDS011;2320;51.362;6.946;2024-03-17T06:47:20;4.73;;;4.20;;
4614;SDS011;2320;51.362;6.946;2024-03-17T06:49:45;5.03;;;4.43;;
4614;SDS011;2320;51.362;6.946;2024-03-17T06:52:11;6.07;;;4.80;;
4614;SDS011;2320;51.362;6.946;2024-03-17T06:54:36;6.03;;;4.67;;
4614;SDS011;2320;51.362;6.946;2024-03-17T06:57:02;5.83;;;4.77;;
4614;SDS011;2320;51.362;6.946;2024-03-17T06:59:28;8.53;;;5.67;;
4614;SDS011;2320;51.362;6.946;2024-03-17T07:01:53;4.73;;;4.30;;
4614;SDS011;2320;51.362;6.946;2024-03-17T07:04:19;5.70;;;4.20;;
4614;SDS011;2320;51.362;6.946;2024-03-17T07:06:46;5.60;;;4.40;;
4614;SDS011;2320;51.362;6.946;2024-03-17T07:09:11;6.00;;;4.20;;
4614;SDS011;2320;51.362;6.946;2024-03-17T07:11:37;5.40;;;3.80;;
4614;SDS011;2320;51.362;6.946;2024-03-17T07:14:02;4.70;;;4.30;;
4614;SDS011;2320;51.362;6.946;2024-03-17T07:16:28;6.70;;;3.90;;
4614;SDS011;2320;51.362;6.946;2024-03-17T07:18:53;4.67;;;4.23;;
4614;SDS011;2320;51.362;6.946;2024-03-17T07:21:21;4.43;;;3.90;;
4614;SDS011;2320;51.362;6.946;2024-03-17T07:23:46;4.80;;;4.40;;
4614;SDS011;2320;51.362;6.946;2024-03-17T07:26:12;7.57;;;3.77;;
4614;SDS011;2320;51.362;6.946;2024-03-17T07:28:39;3.40;;;3.10;;
4614;SDS011;2320;51.362;6.946;2024-03-17T07:31:05;8.63;;;4.00;;
4614;SDS011;2320;51.362;6.946;2024-03-17T07:33:33;3.70;;;3.30;;
4614;SDS011;2320;51.362;6.946;2024-03-17T07:35:59;5.10;;;3.33;;
4614;SDS011;2320;51.362;6.946;2024-03-17T07:38:26;3.70;;;3.30;;
4614;SDS011;2320;51.362;6.946;2024-03-17T07:40:59;4.87;;;3.90;;
4614;SDS011;2320;51.362;6.946;2024-03-17T07:43:26;6.47;;;3.97;;
4614;SDS011;2320;51.362;6.946;2024-03-17T07:45:56;3.97;;;3.00;;
4614;SDS011;2320;51.362;6.946;2024-03-17T07:48:22;5.27;;;4.03;;
4614;SDS011;2320;51.362;6.946;2024-03-17T07:50:55;3.47;;;3.20;;
4614;SDS011;2320;51.362;6.946;2024-03-17T07:53:34;4.60;;;3.60;;
4614;SDS011;2320;51.362;6.946;2024-03-17T07:56:01;4.50;;;4.10;;
4614;SDS011;2320;51.362;6.946;2024-03-17T07:58:28;4.03;;;3.73;;
4614;SDS011;2320;51.362;6.946;2024-03-17T08:00:58;4.43;;;4.03;;
4614;SDS011;2320;51.362;6.946;2024-03-17T08:03:24;6.00;;;3.70;;
4614;SDS011;2320;51.362;6.946;2024-03-17T08:05:50;5.97;;;3.60;;
4614;SDS011;2320;51.362;6.946;2024-03-17T08:08:17;5.13;;;3.47;;
4614;SDS011;2320;51.362;6.946;2024-03-17T08:10:43;12.80;;;9.77;;
4614;SDS011;2320;51.362;6.946;2024-03-17T08:13:09;4.93;;;3.90;;
4614;SDS011;2320;51.362;6.946;2024-03-17T08:15:34;3.63;;;3.33;;
4614;SDS011;2320;51.362;6.946;2024-03-17T08:18:00;5.77;;;3.70;;
4614;SDS011;2320;51.362;6.946;2024-03-17T08:20:26;4.10;;;3.10;;
4614;SDS011;2320;51.362;6.946;2024-03-17T08:22:51;3.70;;;3.40;;
4614;SDS011;2320;51.362;6.946;2024-03-17T08:25:17;4.90;;;3.13;;
4614;SDS011;2320;51.362;6.946;2024-03-17T08:27:43;3.30;;;3.00;;
4614;SDS011;2320;51.362;6.946;2024-03-17T08:30:08;3.17;;;2.87;;
4614;SDS011;2320;51.362;6.946;2024-03-17T08:32:38;4.60;;;3.00;;
4614;SDS011;2320;51.362;6.946;2024-03-17T08:35:04;3.90;;;2.97;;
4614;SDS011;2320;51.362;6.946;2024-03-17T08:37:31;4.87;;;2.80;;
4614;SDS011;2320;51.362;6.946;2024-03-17T08:39:56;6.50;;;2.70;;
4614;SDS011;2320;51.362;6.946;2024-03-17T08:42:22;4.77;;;2.90;;
4614;SDS011;2320;51.362;6.946;2024-03-17T08:44:47;3.40;;;3.10;;
4614;SDS011;2320;51.362;6.946;2024-03-17T08:47:13;6.30;;;3.33;;
4614;SDS011;2320;51.362;6.946;2024-03-17T08:49:38;4.90;;;3.43;;
4614;SDS011;2320;51.362;6.946;2024-03-17T08:52:04;3.23;;;2.93;;
4614;SDS011;2320;51.362;6.946;2024-03-17T08:54:29;4.37;;;3.20;;
4614;SDS011;2320;51.362;6.946;2024-03-17T08:56:55;4.00;;;3.53;;
4614;SDS011;2320;51.362;6.946;2024-03-17T08:59:20;3.53;;;3.23;;
4614;SDS011;2320;51.362;6.946;2024-03-17T09:01:46;3.93;;;3.17;;
4614;SDS011;2320;51.362;6.946;2024-03-17T09:04:11;4.17;;;3.60;;
4614;SDS011;2320;51.362;6.946;2024-03-17T09:06:37;3.97;;;3.50;;
4614;SDS011;2320;51.362;6.946;2024-03-17T09:09:03;4.53;;;3.40;;
4614;SDS011;2320;51.362;6.946;2024-03-17T09:11:29;4.50;;;3.73;;
4614;SDS011;2320;51.362;6.946;2024-03-17T09:13:54;3.90;;;3.60;;
4614;SDS011;2320;51.362;6.946;2024-03-17T09:16:20;6.83;;;3.53;;
4614;SDS011;2320;51.362;6.946;2024-03-17T09:18:48;6.13;;;3.93;;
4614;SDS011;2320;51.362;6.946;2024-03-17T09:21:14;4.10;;;3.70;;
4614;SDS011;2320;51.362;6.946;2024-03-17T09:23:41;4.60;;;4.20;;
4614;SDS011;2320;51.362;6.946;2024-03-17T09:26:07;4.40;;;3.50;;
4614;SDS011;2320;51.362;6.946;2024-03-17T09:28:34;4.47;;;3.23;;
4614;SDS011;2320;51.362;6.946;2024-03-17T09:31:00;5.60;;;3.80;;
4614;SDS011;2320;51.362;6.946;2024-03-17T09:33:27;5.80;;;4.07;;
4614;SDS011;2320;51.362;6.946;2024-03-17T09:36:01;4.83;;;4.03;;
4614;SDS011;2320;51.362;6.946;2024-03-17T09:38:31;6.83;;;3.90;;
4614;SDS011;2320;51.362;6.946;2024-03-17T09:40:57;5.70;;;3.97;;
4614;SDS011;2320;51.362;6.946;2024-03-17T09:43:25;3.90;;;3.50;;
4614;SDS011;2320;51.362;6.946;2024-03-17T09:45:54;4.30;;;3.90;;
4614;SDS011;2320;51.362;6.946;2024-03-17T09:48:23;4.43;;;3.73;;
4614;SDS011;2320;51.362;6.946;2024-03-17T09:50:51;5.03;;;3.10;;
4614;SDS011;2320;51.362;6.946;2024-03-17T09:53:32;5.10;;;3.20;;
4614;SDS011;2320;51.362;6.946;2024-03-17T09:58:26;4.60;;;4.20;;
4614;SDS011;2320;51.362;6.946;2024-03-17T10:00:52;4.33;;;3.97;;
4614;SDS011;2320;51.362;6.946;2024-03-17T10:06:14;5.13;;;3.87;;
4614;SDS011;2320;51.362;6.946;2024-03-17T10:08:41;4.00;;;3.50;;
4614;SDS011;2320;51.362;6.946;2024-03-17T10:11:07;4.60;;;4.10;;
4614;SDS011;2320;51.362;6.946;2024-03-17T10:13:33;4.40;;;3.50;;
4614;SDS011;2320;51.362;6.946;2024-03-17T10:15:59;4.07;;;3.77;;
4614;SDS011;2320;51.362;6.946;2024-03-17T10:18:24;4.60;;;4.17;;
4614;SDS011;2320;51.362;6.946;2024-03-17T10:20:50;4.30;;;3.90;;
4614;SDS011;2320;51.362;6.946;2024-03-17T10:23:20;7.93;;;3.83;;
4614;SDS011;2320;51.362;6.946;2024-03-17T10:25:45;5.27;;;4.23;;
4614;SDS011;2320;51.362;6.946;2024-03-17T10:28:12;4.53;;;4.10;;
4614;SDS011;2320;51.362;6.946;2024-03-17T10:30:38;5.70;;;4.37;;
4614;SDS011;2320;51.362;6.946;2024-03-17T10:33:05;4.73;;;4.30;;
4614;SDS011;2320;51.362;6.946;2024-03-17T10:38:00;4.63;;;3.83;;
4614;SDS011;2320;51.362;6.946;2024-03-17T10:40:29;5.37;;;4.13;;
4614;SDS011;2320;51.362;6.946;2024-03-17T10:42:56;4.43;;;4.03;;
4614;SDS011;2320;51.362;6.946;2024-03-17T10:45:23;5.30;;;4.73;;
4614;SDS011;2320;51.362;6.946;2024-03-17T10:47:50;4.90;;;4.40;;
4614;SDS011;2320;51.362;6.946;2024-03-17T10:50:18;5.00;;;4.50;;
4614;SDS011;2320;51.362;6.946;2024-03-17T10:52:45;7.10;;;4.23;;
4614;SDS011;2320;51.362;6.946;2024-03-17T10:55:19;7.13;;;4.93;;
4614;SDS011;2320;51.362;6.946;2024-03-17T10:57:47;5.77;;;5.10;;
4614;SDS011;2320;51.362;6.946;2024-03-17T11:00:15;8.17;;;5.00;;
4614;SDS011;2320;51.362;6.946;2024-03-17T11:02:47;4.37;;;3.97;;
4614;SDS011;2320;51.362;6.946;2024-03-17T11:05:25;5.80;;;4.80;;
4614;SDS011;2320;51.362;6.946;2024-03-17T11:07:58;5.60;;;4.93;;
4614;SDS011;2320;51.362;6.946;2024-03-17T11:10:30;4.27;;;3.87;;
4614;SDS011;2320;51.362;6.946;2024-03-17T11:12:59;4.83;;;4.13;;
4614;SDS011;2320;51.362;6.946;2024-03-17T11:18:40;10.30;;;5.50;;
4614;SDS011;2320;51.362;6.946;2024-03-17T11:21:05;4.23;;;3.83;;
4614;SDS011;2320;51.362;6.946;2024-03-17T11:23:41;6.30;;;4.10;;
4614;SDS011;2320;51.362;6.946;2024-03-17T11:26:07;5.23;;;4.47;;
4614;SDS011;2320;51.362;6.946;2024-03-17T11:28:51;6.70;;;4.83;;
4614;SDS011;2320;51.362;6.946;2024-03-17T11:31:37;5.50;;;4.40;;
4614;SDS011;2320;51.362;6.946;2024-03-17T11:36:53;5.40;;;4.97;;
4614;SDS011;2320;51.362;6.946;2024-03-17T11:39:19;8.60;;;5.17;;
4614;SDS011;2320;51.362;6.946;2024-03-17T11:41:48;5.23;;;4.73;;
4614;SDS011;2320;51.362;6.946;2024-03-17T11:46:46;6.13;;;4.70;;
4614;SDS011;2320;51.362;6.946;2024-03-17T11:49:37;5.90;;;5.30;;
4614;SDS011;2320;51.362;6.946;2024-03-17T11:54:35;10.13;;;6.13;;
4614;SDS011;2320;51.362;6.946;2024-03-17T11:57:05;4.40;;;4.00;;
4614;SDS011;2320;51.362;6.946;2024-03-17T11:59:32;5.10;;;4.60;;
4614;SDS011;2320;51.362;6.946;2024-03-17T12:01:58;7.67;;;4.93;;
4614;SDS011;2320;51.362;6.946;2024-03-17T12:04:24;5.70;;;4.67;;
4614;SDS011;2320;51.362;6.946;2024-03-17T12:06:51;4.87;;;4.40;;
4614;SDS011;2320;51.362;6.946;2024-03-17T12:09:21;6.80;;;5.50;;
4614;SDS011;2320;51.362;6.946;2024-03-17T12:12:01;5.13;;;4.60;;
4614;SDS011;2320;51.362;6.946;2024-03-17T12:14:31;7.33;;;4.80;;
4614;SDS011;2320;51.362;6.946;2024-03-17T12:16:59;7.30;;;4.60;;
4614;SDS011;2320;51.362;6.946;2024-03-17T12:19:26;6.30;;;4.77;;
4614;SDS011;2320;51.362;6.946;2024-03-17T12:21:56;5.90;;;5.37;;
4614;SDS011;2320;51.362;6.946;2024-03-17T12:24:27;5.83;;;5.20;;
4614;SDS011;2320;51.362;6.946;2024-03-17T12:26:53;8.40;;;5.77;;
4614;SDS011;2320;51.362;6.946;2024-03-17T12:32:06;8.33;;;4.90;;
4614;SDS011;2320;51.362;6.946;2024-03-17T12:34:38;9.30;;;5.07;;
4614;SDS011;2320;51.362;6.946;2024-03-17T12:37:04;6.83;;;5.27;;
4614;SDS011;2320;51.362;6.946;2024-03-17T12:39:33;6.23;;;5.10;;
4614;SDS011;2320;51.362;6.946;2024-03-17T12:44:33;6.30;;;4.93;;
4614;SDS011;2320;51.362;6.946;2024-03-17T12:47:00;10.43;;;7.57;;
4614;SDS011;2320;51.362;6.946;2024-03-17T12:49:30;21.27;;;11.77;;
4614;SDS011;2320;51.362;6.946;2024-03-17T12:51:59;7.70;;;5.20;;
4614;SDS011;2320;51.362;6.946;2024-03-17T12:54:26;7.27;;;4.23;;
4614;SDS011;2320;51.362;6.946;2024-03-17T12:57:03;4.60;;;4.20;;
4614;SDS011;2320;51.362;6.946;2024-03-17T12:59:47;14.47;;;4.70;;
4614;SDS011;2320;51.362;6.946;2024-03-17T13:02:32;8.00;;;4.27;;
4614;SDS011;2320;51.362;6.946;2024-03-17T13:07:45;8.40;;;4.90;;
4614;SDS011;2320;51.362;6.946;2024-03-17T13:10:14;5.30;;;4.47;;
4614;SDS011;2320;51.362;6.946;2024-03-17T13:12:40;13.27;;;9.37;;
4614;SDS011;2320;51.362;6.946;2024-03-17T13:15:08;6.10;;;4.67;;
4614;SDS011;2320;51.362;6.946;2024-03-17T13:17:36;7.40;;;4.83;;
4614;SDS011;2320;51.362;6.946;2024-03-17T13:20:01;8.43;;;5.10;;
4614;SDS011;2320;51.362;6.946;2024-03-17T13:22:27;7.20;;;4.43;;
4614;SDS011;2320;51.362;6.946;2024-03-17T13:24:53;5.27;;;4.80;;
4614;SDS011;2320;51.362;6.946;2024-03-17T13:27:18;6.00;;;5.50;;
4614;SDS011;2320;51.362;6.946;2024-03-17T13:29:47;6.60;;;4.97;;
4614;SDS011;2320;51.362;6.946;2024-03-17T13:32:13;18.07;;;11.93;;
4614;SDS011;2320;51.362;6.946;2024-03-17T13:34:40;5.10;;;4.60;;
4614;SDS011;2320;51.362;6.946;2024-03-17T13:37:06;6.07;;;3.80;;
4614;SDS011;2320;51.362;6.946;2024-03-17T13:39:32;9.67;;;6.67;;
4614;SDS011;2320;51.362;6.946;2024-03-17T13:41:59;9.67;;;5.10;;
4614;SDS011;2320;51.362;6.946;2024-03-17T13:44:36;4.83;;;3.97;;
4614;SDS011;2320;51.362;6.946;2024-03-17T13:47:01;8.67;;;5.37;;
4614;SDS011;2320;51.362;6.946;2024-03-17T13:49:28;5.63;;;4.60;;
4614;SDS011;2320;51.362;6.946;2024-03-17T13:51:54;7.10;;;5.57;;
4614;SDS011;2320;51.362;6.946;2024-03-17T13:54:20;18.07;;;12.00;;
4614;SDS011;2320;51.362;6.946;2024-03-17T13:56:48;3.50;;;2.97;;
4614;SDS011;2320;51.362;6.946;2024-03-17T13:59:14;4.60;;;3.57;;
4614;SDS011;2320;51.362;6.946;2024-03-17T14:01:41;3.80;;;3.47;;
4614;SDS011;2320;51.362;6.946;2024-03-17T14:04:14;8.73;;;5.20;;
4614;SDS011;2320;51.362;6.946;2024-03-17T14:06:43;6.37;;;4.00;;
4614;SDS011;2320;51.362;6.946;2024-03-17T14:09:10;7.67;;;3.80;;
4614;SDS011;2320;51.362;6.946;2024-03-17T14:11:37;5.87;;;3.73;;
4614;SDS011;2320;51.362;6.946;2024-03-17T14:14:03;5.63;;;5.03;;
4614;SDS011;2320;51.362;6.946;2024-03-17T14:16:30;6.47;;;4.10;;
4614;SDS011;2320;51.362;6.946;2024-03-17T14:18:58;4.47;;;3.60;;
4614;SDS011;2320;51.362;6.946;2024-03-17T14:21:25;7.23;;;3.80;;
4614;SDS011;2320;51.362;6.946;2024-03-17T14:23:51;7.10;;;3.43;;
4614;SDS011;2320;51.362;6.946;2024-03-17T14:26:17;3.40;;;2.80;;
4614;SDS011;2320;51.362;6.946;2024-03-17T14:28:43;6.37;;;3.20;;
4614;SDS011;2320;51.362;6.946;2024-03-17T14:31:08;10.50;;;7.40;;
4614;SDS011;2320;51.362;6.946;2024-03-17T14:33:34;8.43;;;5.17;;
4614;SDS011;2320;51.362;6.946;2024-03-17T14:35:59;3.90;;;3.50;;
4614;SDS011;2320;51.362;6.946;2024-03-17T14:38:25;3.93;;;2.97;;
4614;SDS011;2320;51.362;6.946;2024-03-17T14:40:53;4.80;;;3.17;;
4614;SDS011;2320;51.362;6.946;2024-03-17T14:43:19;3.87;;;3.13;;
4614;SDS011;2320;51.362;6.946;2024-03-17T14:45:45;4.03;;;2.40;;
4614;SDS011;2320;51.362;6.946;2024-03-17T14:48:11;3.83;;;2.40;;
4614;SDS011;2320;51.362;6.946;2024-03-17T14:50:38;3.53;;;2.73;;
4614;SDS011;2320;51.362;6.946;2024-03-17T14:53:04;4.80;;;2.77;;
4614;SDS011;2320;51.362;6.946;2024-03-17T14:55:30;5.20;;;2.90;;
4614;SDS011;2320;51.362;6.946;2024-03-17T14:57:56;3.10;;;2.50;;
4614;SDS011;2320;51.362;6.946;2024-03-17T15:00:21;6.77;;;3.30;;
4614;SDS011;2320;51.362;6.946;2024-03-17T15:02:50;4.23;;;2.63;;
4614;SDS011;2320;51.362;6.946;2024-03-17T15:05:17;5.13;;;2.77;;
4614;SDS011;2320;51.362;6.946;2024-03-17T15:07:47;3.20;;;2.47;;
4614;SDS011;2320;51.362;6.946;2024-03-17T15:10:16;3.60;;;3.30;;
4614;SDS011;2320;51.362;6.946;2024-03-17T15:12:46;3.87;;;3.47;;
4614;SDS011;2320;51.362;6.946;2024-03-17T15:15:13;6.03;;;3.60;;
4614;SDS011;2320;51.362;6.946;2024-03-17T15:17:38;5.73;;;3.40;;
4614;SDS011;2320;51.362;6.946;2024-03-17T15:20:05;4.80;;;3.20;;
4614;SDS011;2320;51.362;6.946;2024-03-17T15:22:41;4.73;;;3.30;;
4614;SDS011;2320;51.362;6.946;2024-03-17T15:25:08;3.40;;;3.10;;
4614;SDS011;2320;51.362;6.946;2024-03-17T15:27:34;3.30;;;2.93;;
4614;SDS011;2320;51.362;6.946;2024-03-17T15:29:59;9.80;;;4.60;;
4614;SDS011;2320;51.362;6.946;2024-03-17T15:32:25;20.93;;;12.90;;
4614;SDS011;2320;51.362;6.946;2024-03-17T15:34:50;3.90;;;3.43;;
4614;SDS011;2320;51.362;6.946;2024-03-17T15:37:16;4.60;;;3.50;;
4614;SDS011;2320;51.362;6.946;2024-03-17T15:39:42;4.00;;;3.20;;